Time;durP1;ratioP1;P1;durP2;ratioP2;P2;SDS_P1;SDS_P2;PMS_P1;PMS_P2;Temp;Humidity;BMP_temperature;BMP_pressure;BME280_temperature;BME280_humidity;BME280_pressure;Samples;Min_cycle;Max_cycle;Signal;HPM_P1;HPM_P2
2022/10/18 00:01:06;;;;;;;13.23;5.78;;;;;;;;;;4973484;28;20023;-86
2022/10/18 00:03:32;;;;;;;11.77;5.20;;;17.30;99.90;;;;;;4968453;28;20138;-84
2022/10/18 00:05:58;;;;;;;12.35;5.78;;;;;;;;;;4978533;28;20031;-85
2022/10/18 00:08:25;;;;;;;12.70;5.65;;;17.30;99.90;;;;;;4974558;28;20090;-85
2022/10/18 00:10:51;;;;;;;10.77;6.15;;;17.40;99.90;;;;;;4970668;28;20030;-84
2022/10/18 00:13:17;;;;;;;11.05;6.18;;;17.20;99.90;;;;;;4974745;28;20027;-87
2022/10/18 00:15:52;;;;;;;14.20;6.28;;;17.20;99.90;;;;;;4975479;28;20027;-85
2022/10/18 00:18:18;;;;;;;12.85;6.20;;;17.20;99.90;;;;;;4976207;28;20039;-85
2022/10/18 00:20:44;;;;;;;14.68;6.20;;;;;;;;;;4971624;28;20023;-86
2022/10/18 00:23:10;;;;;;;13.55;5.93;;;17.30;99.90;;;;;;4989735;28;20031;-84
2022/10/18 00:25:35;;;;;;;14.27;5.40;;;17.40;99.90;;;;;;4989621;28;20018;-85
2022/10/18 00:28:01;;;;;;;16.42;6.38;;;17.30;99.90;;;;;;4987525;28;20031;-85
2022/10/18 00:30:26;;;;;;;21.13;7.22;;;17.30;99.90;;;;;;4986941;28;20037;-85
2022/10/18 00:32:52;;;;;;;14.35;6.60;;;17.30;99.90;;;;;;4973736;28;20157;-82
2022/10/18 00:35:18;;;;;;;11.15;6.03;;;18.40;99.90;;;;;;4967341;28;20026;-85
2022/10/18 00:37:43;;;;;;;17.08;6.65;;;17.20;99.90;;;;;;4971968;28;20041;-86
2022/10/18 00:40:09;;;;;;;12.98;6.63;;;17.20;99.90;;;;;;4967718;28;20058;-84
2022/10/18 00:42:37;;;;;;;14.60;6.63;;;17.30;99.90;;;;;;4963158;28;20035;-87
2022/10/18 00:45:15;;;;;;;15.48;6.85;;;17.20;99.90;;;;;;4966888;28;20098;-84
2022/10/18 00:47:44;;;;;;;9.27;6.75;;;17.80;99.90;;;;;;4963916;28;20042;-86
2022/10/18 00:50:10;;;;;;;13.13;6.68;;;17.20;99.90;;;;;;4966645;28;20038;-88
2022/10/18 00:52:40;;;;;;;10.98;6.78;;;17.10;99.90;;;;;;4970779;28;20097;-83
2022/10/18 00:55:06;;;;;;;12.57;6.28;;;17.40;99.90;;;;;;4965941;28;20039;-83
2022/10/18 00:57:36;;;;;;;14.55;6.78;;;17.20;99.90;;;;;;4978936;28;20031;-82
2022/10/18 01:00:08;;;;;;;9.15;5.97;;;17.10;99.90;;;;;;4970295;28;20019;-85
2022/10/18 01:02:39;;;;;;;14.60;6.95;;;17.10;99.90;;;;;;4970508;28;20732;-85
2022/10/18 01:05:05;;;;;;;15.68;7.57;;;17.10;99.90;;;;;;4974530;28;20079;-85
2022/10/18 01:08:04;;;;;;;14.27;7.57;;;17.10;99.90;;;;;;4974600;28;20034;-86
2022/10/18 01:10:32;;;;;;;16.27;6.80;;;17.20;99.90;;;;;;4974643;28;20058;-84
2022/10/18 01:13:04;;;;;;;15.32;6.43;;;17.30;99.90;;;;;;4974117;28;20034;-84
2022/10/18 01:15:40;;;;;;;15.90;6.47;;;17.30;99.90;;;;;;4977245;28;20054;-86
2022/10/18 01:18:18;;;;;;;15.43;6.30;;;17.30;99.90;;;;;;4972517;28;20401;-85
2022/10/18 01:20:53;;;;;;;9.98;6.05;;;17.30;99.90;;;;;;4973931;28;20026;-85
2022/10/18 01:23:58;;;;;;;9.88;5.53;;;17.20;99.90;;;;;;4973571;28;20086;-84
2022/10/18 01:26:45;;;;;;;8.93;6.00;;;17.40;99.90;;;;;;4989180;28;20031;-85
2022/10/18 01:29:21;;;;;;;12.93;6.15;;;17.30;99.90;;;;;;4988185;28;20062;-86
2022/10/18 01:31:52;;;;;;;11.02;6.05;;;17.30;99.90;;;;;;4990492;28;20022;-85
2022/10/18 01:34:19;;;;;;;10.93;6.07;;;17.40;99.90;;;;;;4973673;28;20030;-84
2022/10/18 01:36:52;;;;;;;13.15;5.78;;;17.40;99.90;;;;;;4978255;28;20031;-86
2022/10/18 01:39:25;;;;;;;12.35;6.30;;;17.40;99.90;;;;;;4975511;28;20019;-87
2022/10/18 01:41:53;;;;;;;10.75;6.50;;;17.30;99.90;;;;;;4975815;28;20058;-85
2022/10/18 01:44:28;;;;;;;11.13;5.82;;;17.30;99.90;;;;;;4982593;28;20050;-83
2022/10/18 01:46:56;;;;;;;14.23;6.50;;;17.20;99.90;;;;;;4993679;28;20502;-85
2022/10/18 01:49:22;;;;;;;14.32;6.55;;;17.40;99.90;;;;;;4979269;28;20027;-85
2022/10/18 01:51:52;;;;;;;13.05;6.00;;;17.60;99.90;;;;;;4976081;28;20043;-86
2022/10/18 01:54:23;;;;;;;12.20;6.30;;;17.20;99.90;;;;;;4984460;28;20038;-84
2022/10/18 01:56:57;;;;;;;12.48;6.90;;;17.10;99.90;;;;;;4994663;28;20023;-86
2022/10/18 01:59:38;;;;;;;13.15;7.00;;;17.10;99.90;;;;;;4977520;28;20027;-86
2022/10/18 02:02:24;;;;;;;14.98;7.10;;;17.10;99.90;;;;;;4982213;28;20034;-86
2022/10/18 02:05:00;;;;;;;12.10;6.63;;;17.10;99.90;;;;;;4995320;28;20038;-85
2022/10/18 02:07:52;;;;;;;12.48;6.72;;;17.50;99.90;;;;;;4976747;28;20200;-86
2022/10/18 02:10:30;;;;;;;20.60;6.40;;;17.10;99.90;;;;;;4972775;28;20038;-85
2022/10/18 02:12:58;;;;;;;10.25;6.80;;;17.00;99.90;;;;;;4970450;28;20038;-85
2022/10/18 02:15:31;;;;;;;11.75;6.45;;;17.00;99.90;;;;;;4976315;28;20030;-84
2022/10/18 02:17:57;;;;;;;11.07;6.57;;;;;;;;;;4975210;28;20045;-86
2022/10/18 02:20:27;;;;;;;16.35;6.90;;;16.90;99.90;;;;;;4974298;28;20090;-88
2022/10/18 02:22:56;;;;;;;11.52;6.80;;;16.90;99.90;;;;;;4964648;28;20116;-86
2022/10/18 02:25:24;;;;;;;12.88;7.30;;;16.80;99.90;;;;;;4976086;28;20137;-84
2022/10/18 02:27:51;;;;;;;16.02;6.90;;;17.90;99.90;;;;;;4976546;28;20270;-83
2022/10/18 02:30:17;;;;;;;12.20;7.53;;;;;;;;;;4975045;28;20054;-86
2022/10/18 02:32:56;;;;;;;14.35;7.38;;;16.80;99.90;;;;;;4982129;28;20023;-88
2022/10/18 02:35:35;;;;;;;15.95;7.78;;;16.80;99.90;;;;;;4982566;28;20027;-84
2022/10/18 02:38:03;;;;;;;18.85;7.82;;;16.80;99.90;;;;;;4972043;28;20038;-84
2022/10/18 02:40:29;;;;;;;17.80;7.97;;;16.70;99.90;;;;;;4969967;28;20029;-87
2022/10/18 02:42:56;;;;;;;14.98;8.32;;;16.70;99.90;;;;;;4966940;28;20027;-84
2022/10/18 02:45:23;;;;;;;19.60;8.02;;;16.80;99.90;;;;;;4970601;28;20122;-84
2022/10/18 02:47:50;;;;;;;14.07;7.70;;;;;;;;;;4973970;28;20034;-86
2022/10/18 02:50:15;;;;;;;14.77;7.70;;;16.70;99.90;;;;;;4976958;28;20027;-84
2022/10/18 02:52:41;;;;;;;12.25;7.43;;;16.70;99.90;;;;;;4976271;28;20126;-83
2022/10/18 02:55:08;;;;;;;18.98;7.95;;;16.70;99.90;;;;;;4970446;28;20622;-87
2022/10/18 02:57:34;;;;;;;15.88;8.02;;;16.70;99.90;;;;;;4972337;28;20698;-86
2022/10/18 02:59:59;;;;;;;15.45;7.68;;;16.70;99.90;;;;;;4975842;28;20106;-85
2022/10/18 03:02:25;;;;;;;15.43;7.80;;;;;;;;;;4972945;28;20058;-85
2022/10/18 03:04:51;;;;;;;15.00;8.05;;;16.60;99.90;;;;;;4975921;28;20034;-88
2022/10/18 03:07:17;;;;;;;17.13;8.40;;;16.60;99.90;;;;;;4976386;28;20622;-86
2022/10/18 03:09:42;;;;;;;16.02;8.00;;;16.70;99.90;;;;;;4988073;28;20018;-87
2022/10/18 03:12:08;;;;;;;14.32;8.23;;;16.50;99.90;;;;;;4993932;28;20046;-86
2022/10/18 03:14:33;;;;;;;14.00;7.40;;;16.50;99.90;;;;;;4992026;28;20015;-84
2022/10/18 03:16:59;;;;;;;20.20;7.90;;;17.40;99.90;;;;;;4974299;28;20527;-86
2022/10/18 03:19:25;;;;;;;13.02;7.30;;;16.50;99.90;;;;;;4974174;28;20122;-87
2022/10/18 03:21:50;;;;;;;18.10;7.90;;;16.90;99.90;;;;;;4974894;28;20038;-87
2022/10/18 03:24:16;;;;;;;14.15;7.63;;;17.00;99.90;;;;;;4976401;28;20731;-84
2022/10/18 03:26:41;;;;;;;15.07;7.20;;;16.40;99.90;;;;;;4978045;28;20057;-86
2022/10/18 03:29:09;;;;;;;16.02;7.72;;;16.60;99.90;;;;;;4974274;28;20591;-86
2022/10/18 03:31:35;;;;;;;17.75;7.85;;;16.50;99.90;;;;;;4977085;28;20034;-87
2022/10/18 03:34:00;;;;;;;12.43;7.43;;;16.50;99.90;;;;;;4973140;28;20122;-85
2022/10/18 03:36:26;;;;;;;12.73;6.80;;;;;;;;;;4974601;28;20066;-86
2022/10/18 03:38:52;;;;;;;13.55;7.30;;;16.50;99.90;;;;;;4983211;28;20034;-85
2022/10/18 03:41:19;;;;;;;14.90;7.20;;;17.00;99.90;;;;;;4984473;28;20027;-86
2022/10/18 03:43:45;;;;;;;12.43;7.32;;;;;;;;;;4990571;28;20027;-85
2022/10/18 03:46:11;;;;;;;15.05;7.63;;;;;;;;;;4976109;28;20117;-84
2022/10/18 03:48:38;;;;;;;19.10;7.10;;;;;;;;;;4970840;28;20109;-85
2022/10/18 03:51:03;;;;;;;17.63;7.35;;;16.60;99.90;;;;;;4976703;28;20034;-87
2022/10/18 03:53:29;;;;;;;15.98;8.18;;;16.60;99.90;;;;;;4978012;28;20030;-86
2022/10/18 03:55:55;;;;;;;14.48;7.68;;;17.70;99.90;;;;;;4973069;28;20122;-84
2022/10/18 03:58:21;;;;;;;18.80;6.95;;;;;;;;;;4975424;28;20444;-86
2022/10/18 04:00:51;;;;;;;14.27;6.82;;;16.60;99.90;;;;;;4973995;28;20066;-86
2022/10/18 04:03:18;;;;;;;15.68;7.07;;;17.00;99.90;;;;;;4975585;28;20026;-86
2022/10/18 04:05:45;;;;;;;17.63;7.10;;;16.70;99.90;;;;;;4978806;28;20094;-86
2022/10/18 04:08:11;;;;;;;13.20;6.97;;;;;;;;;;4969612;28;20413;-86
2022/10/18 04:10:38;;;;;;;11.32;6.85;;;16.70;99.90;;;;;;4982601;28;20042;-84
2022/10/18 04:13:04;;;;;;;12.75;7.00;;;16.60;99.90;;;;;;4972161;28;20031;-86
2022/10/18 04:15:30;;;;;;;13.90;7.50;;;16.70;99.90;;;;;;4972561;28;20030;-85
2022/10/18 04:17:55;;;;;;;13.00;7.95;;;16.90;99.90;;;;;;4985777;28;20035;-85
2022/10/18 04:20:22;;;;;;;14.80;6.93;;;;;;;;;;4975860;28;20042;-86
2022/10/18 04:22:48;;;;;;;13.90;7.13;;;;;;;;;;4973394;28;20540;-86
2022/10/18 04:25:15;;;;;;;18.48;6.78;;;16.80;99.90;;;;;;4973553;28;20027;-84
2022/10/18 04:27:43;;;;;;;11.50;6.45;;;;;;;;;;4976571;28;20102;-81
2022/10/18 04:30:09;;;;;;;13.40;6.47;;;16.80;99.90;;;;;;4975509;28;20035;-86
2022/10/18 04:32:35;;;;;;;13.98;6.88;;;16.80;99.90;;;;;;4945000;28;21588;-86
2022/10/18 04:35:02;;;;;;;12.75;6.45;;;;;;;;;;4973098;28;20031;-87
2022/10/18 04:37:27;;;;;;;11.02;6.25;;;16.90;99.90;;;;;;4971422;28;20031;-87
2022/10/18 04:39:53;;;;;;;12.43;6.55;;;;;;;;;;4975778;28;20087;-85
2022/10/18 04:42:19;;;;;;;14.90;6.70;;;;;;;;;;4976103;28;20693;-87
2022/10/18 04:44:45;;;;;;;12.45;6.63;;;;;;;;;;4981300;28;20023;-87
2022/10/18 04:47:11;;;;;;;12.27;7.07;;;;;;;;;;4973689;28;20035;-87
2022/10/18 04:49:37;;;;;;;13.65;7.13;;;;;;;;;;4972942;28;20042;-88
2022/10/18 04:52:03;;;;;;;16.00;7.00;;;16.80;99.90;;;;;;4976175;28;20070;-87
2022/10/18 04:54:29;;;;;;;13.75;6.65;;;;;;;;;;4977341;28;20504;-84
2022/10/18 04:56:55;;;;;;;11.18;6.68;;;;;;;;;;4981211;28;20062;-84
2022/10/18 04:59:21;;;;;;;11.25;7.05;;;;;;;;;;4974432;28;20085;-87
2022/10/18 05:01:47;;;;;;;15.90;7.38;;;;;;;;;;4966422;28;20034;-85
2022/10/18 05:04:14;;;;;;;10.55;7.03;;;;;;;;;;4969095;28;20031;-85
2022/10/18 05:06:40;;;;;;;12.63;6.75;;;;;;;;;;4971982;28;20030;-86
2022/10/18 05:09:06;;;;;;;13.82;7.15;;;;;;;;;;4972965;28;20560;-87
2022/10/18 05:11:32;;;;;;;23.67;7.30;;;;;;;;;;4971046;28;20050;-86
2022/10/18 05:13:58;;;;;;;15.20;7.22;;;;;;;;;;4970782;28;20035;-85
2022/10/18 05:16:24;;;;;;;13.38;7.20;;;;;;;;;;4972454;28;20023;-86
2022/10/18 05:18:50;;;;;;;19.77;7.63;;;;;;;;;;4969792;28;20113;-85
2022/10/18 05:21:16;;;;;;;21.70;7.70;;;;;;;;;;4971949;28;20140;-88
2022/10/18 05:23:42;;;;;;;17.05;8.27;;;;;;;;;;4974491;28;20073;-87
2022/10/18 05:26:08;;;;;;;15.80;8.18;;;;;;;;;;4979803;28;20035;-90
2022/10/18 05:28:34;;;;;;;13.98;7.65;;;16.60;99.90;;;;;;4989377;28;20023;-84
2022/10/18 05:31:08;;;;;;;13.57;7.45;;;16.60;99.90;;;;;;4990768;28;20015;-85
2022/10/18 05:33:34;;;;;;;16.58;7.85;;;16.70;99.90;;;;;;4990908;28;20038;-86
2022/10/18 05:36:00;;;;;;;14.77;8.57;;;16.70;99.90;;;;;;4985654;28;20144;-83
2022/10/18 05:38:26;;;;;;;14.73;7.93;;;;;;;;;;4984818;28;20046;-83
2022/10/18 05:40:52;;;;;;;15.52;8.80;;;;;;;;;;4974147;28;20570;-81
2022/10/18 05:43:18;;;;;;;16.80;8.80;;;;;;;;;;4967240;28;20058;-86
2022/10/18 05:45:50;;;;;;;16.50;9.77;;;16.70;99.90;;;;;;4971934;28;20091;-85
2022/10/18 05:48:16;;;;;;;16.67;8.90;;;;;;;;;;4968395;28;20034;-84
2022/10/18 05:50:42;;;;;;;21.95;9.98;;;;;;;;;;4960526;28;20125;-85
2022/10/18 05:53:08;;;;;;;16.08;9.10;;;;;;;;;;4968334;28;20027;-84
2022/10/18 05:55:34;;;;;;;17.63;9.48;;;;;;;;;;4965557;28;20050;-84
2022/10/18 05:58:02;;;;;;;14.32;9.38;;;;;;;;;;4968213;28;20039;-87
2022/10/18 06:00:28;;;;;;;16.65;9.52;;;;;;;;;;4967495;28;20027;-88
2022/10/18 06:02:56;;;;;;;14.35;8.00;;;;;;;;;;4972273;28;20077;-86
2022/10/18 06:05:22;;;;;;;11.48;7.60;;;;;;;;;;4984695;28;20023;-87
2022/10/18 06:07:48;;;;;;;13.95;8.18;;;;;;;;;;4967979;28;20027;-88
2022/10/18 06:10:14;;;;;;;13.70;7.82;;;16.70;99.90;;;;;;4966487;28;20043;-86
2022/10/18 06:12:39;;;;;;;19.10;8.40;;;16.70;99.90;;;;;;4965971;28;20445;-88
2022/10/18 06:15:08;;;;;;;11.40;7.43;;;16.60;99.90;;;;;;4967871;28;20033;-88
2022/10/18 06:17:35;;;;;;;18.65;7.95;;;;;;;;;;4968548;28;20041;-85
2022/10/18 06:20:00;;;;;;;17.27;8.50;;;;;;;;;;4985953;28;20031;-85
2022/10/18 06:22:27;;;;;;;14.73;8.55;;;;;;;;;;4974294;28;20023;-87
2022/10/18 06:24:52;;;;;;;16.75;8.80;;;;;;;;;;4979139;28;20065;-86
2022/10/18 06:27:18;;;;;;;18.52;8.23;;;16.50;99.90;;;;;;4975107;28;20031;-87
2022/10/18 06:29:44;;;;;;;15.00;7.40;;;16.60;99.90;;;;;;4955616;28;20038;-85
2022/10/18 06:32:09;;;;;;;16.05;8.18;;;17.40;99.90;;;;;;4968779;28;20041;-86
2022/10/18 06:34:35;;;;;;;16.08;8.52;;;16.70;99.90;;;;;;4977666;28;20035;-86
2022/10/18 06:37:02;;;;;;;15.98;8.10;;;16.50;99.90;;;;;;4955401;28;20034;-83
2022/10/18 06:39:27;;;;;;;18.88;8.05;;;16.50;99.90;;;;;;4973549;28;20494;-90
2022/10/18 06:41:53;;;;;;;15.50;8.50;;;;;;;;;;4973517;28;20038;-87
2022/10/18 06:44:20;;;;;;;14.35;7.97;;;16.50;99.90;;;;;;4972630;28;20027;-87
2022/10/18 06:46:47;;;;;;;19.75;8.68;;;16.50;99.90;;;;;;4965489;28;20492;-88
2022/10/18 06:49:14;;;;;;;13.43;7.72;;;16.50;99.90;;;;;;4980862;28;20066;-88
2022/10/18 06:51:41;;;;;;;14.18;8.73;;;;;;;;;;4980898;28;20507;-85
2022/10/18 06:54:07;;;;;;;17.85;8.25;;;;;;;;;;4975388;28;20035;-86
2022/10/18 06:56:33;;;;;;;16.00;8.25;;;16.60;99.90;;;;;;4981308;28;20808;-87
2022/10/18 06:58:59;;;;;;;16.10;8.18;;;;;;;;;;4973917;28;20026;-84
2022/10/18 07:01:27;;;;;;;14.07;7.38;;;;;;;;;;4975338;28;20081;-88
2022/10/18 07:03:54;;;;;;;16.92;8.20;;;16.70;99.90;;;;;;4978664;28;20034;-88
2022/10/18 07:06:20;;;;;;;17.85;8.52;;;;;;;;;;4980199;28;20488;-86
2022/10/18 07:08:47;;;;;;;18.20;8.52;;;16.70;99.90;;;;;;4982436;28;20039;-86
2022/10/18 07:11:19;;;;;;;16.70;9.13;;;16.80;99.90;;;;;;4980024;28;20050;-86
2022/10/18 07:13:45;;;;;;;12.65;9.20;;;;;;;;;;4974602;28;20039;-85
2022/10/18 07:16:14;;;;;;;17.17;9.50;;;16.80;99.90;;;;;;4980244;28;20069;-84
2022/10/18 07:18:44;;;;;;;14.70;10.00;;;16.90;99.90;;;;;;4994504;28;20026;-87
2022/10/18 07:21:13;;;;;;;18.30;10.77;;;16.90;99.90;;;;;;4976121;28;20050;-85
2022/10/18 07:23:41;;;;;;;16.73;11.70;;;16.90;99.90;;;;;;4975327;28;20481;-85
2022/10/18 07:26:28;;;;;;;19.02;11.90;;;16.90;99.90;;;;;;4973785;28;20030;-84
2022/10/18 07:29:04;;;;;;;18.77;12.13;;;16.90;99.90;;;;;;4991384;28;20031;-87
2022/10/18 07:31:30;;;;;;;19.88;12.05;;;17.00;99.90;;;;;;4975069;28;20374;-84
2022/10/18 07:33:56;;;;;;;18.40;12.27;;;17.00;99.90;;;;;;4984834;28;20037;-88
2022/10/18 07:36:23;;;;;;;19.60;11.73;;;17.70;99.90;;;;;;4990257;28;20023;-85
2022/10/18 07:38:50;;;;;;;20.38;13.35;;;17.00;99.90;;;;;;4993865;28;20045;-86
2022/10/18 07:41:16;;;;;;;18.08;12.25;;;16.90;99.90;;;;;;4989621;28;20039;-85
2022/10/18 07:43:45;;;;;;;17.65;12.43;;;17.00;99.90;;;;;;4972149;28;20027;-85
2022/10/18 07:46:11;;;;;;;20.15;12.07;;;17.00;99.90;;;;;;4973172;28;20027;-85
2022/10/18 07:48:37;;;;;;;18.98;11.45;;;;;;;;;;4976184;28;20035;-82
2022/10/18 07:51:03;;;;;;;18.67;12.90;;;17.10;99.90;;;;;;4991311;28;20042;-84
2022/10/18 07:53:29;;;;;;;20.75;12.15;;;17.00;99.90;;;;;;4975607;28;20033;-86
2022/10/18 07:56:01;;;;;;;21.63;13.35;;;17.00;99.90;;;;;;4978182;28;20030;-82
2022/10/18 07:58:26;;;;;;;21.25;12.88;;;17.00;99.90;;;;;;4976103;28;20046;-86
2022/10/18 08:00:52;;;;;;;22.25;12.73;;;17.80;99.90;;;;;;4957448;28;20034;-86
2022/10/18 08:03:18;;;;;;;18.13;12.13;;;17.00;99.90;;;;;;4971720;28;20054;-85
2022/10/18 08:05:50;;;;;;;15.43;10.85;;;17.10;99.90;;;;;;4976895;28;20027;-85
2022/10/18 08:08:16;;;;;;;17.98;11.38;;;;;;;;;;4974352;28;20580;-86
2022/10/18 08:10:42;;;;;;;17.50;10.25;;;17.10;99.90;;;;;;4974356;28;20062;-84
2022/10/18 08:13:08;;;;;;;17.58;10.77;;;;;;;;;;4973995;28;20121;-87
2022/10/18 08:15:34;;;;;;;13.35;9.55;;;;;;;;;;4979253;28;20511;-86
2022/10/18 08:17:59;;;;;;;17.90;9.77;;;17.30;99.90;;;;;;4974950;28;20039;-88
2022/10/18 08:20:26;;;;;;;17.50;10.30;;;;;;;;;;4976672;28;20038;-87
2022/10/18 08:22:52;;;;;;;18.05;9.80;;;;;;;;;;4977644;28;20038;-83
2022/10/18 08:25:17;;;;;;;15.30;9.27;;;;;;;;;;4973241;28;20015;-85
2022/10/18 08:27:43;;;;;;;19.60;10.90;;;17.30;99.90;;;;;;4972809;28;20040;-87
2022/10/18 08:30:09;;;;;;;18.23;10.68;;;17.60;99.90;;;;;;4975914;28;20082;-85
2022/10/18 08:32:35;;;;;;;14.77;9.70;;;17.50;99.90;;;;;;4976622;28;20073;-86
2022/10/18 08:35:00;;;;;;;15.45;9.32;;;17.50;99.90;;;;;;4976949;28;20035;-88
2022/10/18 08:37:26;;;;;;;18.08;9.30;;;17.60;99.90;;;;;;4974085;28;20027;-84
2022/10/18 08:39:52;;;;;;;11.95;8.13;;;;;;;;;;4972020;28;20035;-85
2022/10/18 08:42:26;;;;;;;13.85;8.20;;;17.60;99.90;;;;;;4972314;28;20031;-85
2022/10/18 08:44:53;;;;;;;9.85;7.20;;;17.60;99.90;;;;;;4970917;28;20110;-88
2022/10/18 08:47:33;;;;;;;9.98;7.18;;;17.60;99.90;;;;;;4973720;28;20085;-86
2022/10/18 08:50:06;;;;;;;17.48;10.65;;;17.60;99.90;;;;;;4976478;28;20043;-87
2022/10/18 08:52:44;;;;;;;12.27;7.40;;;17.60;99.90;;;;;;4987339;28;20035;-86
2022/10/18 08:55:10;;;;;;;13.25;7.65;;;;;;;;;;4972265;28;20030;-84
2022/10/18 08:57:36;;;;;;;10.73;7.70;;;17.70;99.90;;;;;;4975159;28;20062;-84
2022/10/18 09:00:23;;;;;;;9.43;6.38;;;17.80;99.90;;;;;;4977662;28;20482;-86
2022/10/18 09:03:20;;;;;;;9.40;6.47;;;17.80;99.90;;;;;;4976658;28;20043;-86
2022/10/18 09:05:54;;;;;;;10.43;6.40;;;17.80;99.90;;;;;;4973411;28;20027;-87
2022/10/18 09:08:47;;;;;;;9.85;6.78;;;17.80;99.90;;;;;;4971109;28;20144;-86
2022/10/18 09:12:00;;;;;;;8.55;6.50;;;17.80;99.90;;;;;;4974160;28;20027;-86
2022/10/18 09:14:38;;;;;;;11.70;6.88;;;17.90;99.90;;;;;;4963231;28;20075;-85
2022/10/18 09:17:28;;;;;;;12.95;7.18;;;17.90;99.90;;;;;;4969709;28;20041;-88
2022/10/18 09:20:16;;;;;;;12.15;8.15;;;18.00;99.90;;;;;;4989698;28;20019;-86
2022/10/18 09:22:57;;;;;;;10.68;7.38;;;18.10;99.90;;;;;;4972111;28;20022;-90
2022/10/18 09:25:37;;;;;;;16.15;9.80;;;18.10;99.90;;;;;;4967916;28;20098;-88
2022/10/18 09:28:20;;;;;;;10.00;7.20;;;18.60;99.90;;;;;;4968271;28;20026;-86
2022/10/18 09:30:59;;;;;;;11.90;7.80;;;17.30;99.90;;;;;;4971963;28;20069;-88
2022/10/18 09:33:48;;;;;;;9.65;7.10;;;18.20;99.90;;;;;;4971491;28;20027;-88
2022/10/18 09:36:21;;;;;;;12.07;7.63;;;18.30;99.90;;;;;;4975002;28;20030;-89
2022/10/18 09:38:58;;;;;;;10.65;6.97;;;18.30;99.90;;;;;;4973627;28;20497;-87
2022/10/18 09:41:31;;;;;;;9.05;6.32;;;18.30;99.90;;;;;;4974039;28;20360;-87
2022/10/18 09:44:02;;;;;;;9.27;6.03;;;18.20;99.90;;;;;;4971487;28;20409;-86
2022/10/18 09:46:32;;;;;;;7.93;6.18;;;18.30;99.90;;;;;;4974947;28;20612;-86
2022/10/18 09:49:03;;;;;;;13.75;6.40;;;18.30;99.90;;;;;;4977690;28;20038;-88
2022/10/18 09:51:35;;;;;;;9.13;5.03;;;18.40;99.90;;;;;;4977652;28;20085;-85
2022/10/18 09:54:16;;;;;;;8.85;5.57;;;18.50;99.90;;;;;;4978220;28;20035;-88
2022/10/18 09:56:56;;;;;;;7.80;4.55;;;18.50;99.90;;;;;;4991481;28;20038;-86
2022/10/18 09:59:39;;;;;;;6.72;4.15;;;18.60;99.90;;;;;;4972382;28;20038;-87
2022/10/18 10:02:08;;;;;;;7.18;4.65;;;18.70;99.90;;;;;;4980577;28;20113;-85
2022/10/18 10:04:34;;;;;;;6.22;4.55;;;;;;;;;;4990736;28;20825;-86
2022/10/18 10:07:01;;;;;;;6.07;4.05;;;18.90;99.90;;;;;;4976582;28;20026;-88
2022/10/18 10:09:39;;;;;;;7.65;4.28;;;18.80;99.90;;;;;;4975559;28;20066;-87
2022/10/18 10:12:22;;;;;;;6.38;3.47;;;18.00;99.90;;;;;;4985412;28;20039;-86
2022/10/18 10:14:47;;;;;;;4.75;2.97;;;19.10;99.90;;;;;;4998599;28;20069;-88
2022/10/18 10:17:28;;;;;;;6.63;3.10;;;19.10;99.90;;;;;;4977416;28;20090;-87
2022/10/18 10:20:12;;;;;;;;;;;19.10;99.90;;;;;;4967601;28;20048;-87
2022/10/18 10:22:40;;;;;;;4.50;2.70;;;19.10;99.90;;;;;;4974529;28;19934;-87
2022/10/18 10:25:17;;;;;;;5.38;3.33;;;19.10;99.90;;;;;;4975448;28;20102;-86
2022/10/18 10:27:46;;;;;;;4.75;3.28;;;19.10;99.90;;;;;;4971151;28;20133;-86
2022/10/18 10:30:35;;;;;;;4.40;3.38;;;19.10;99.90;;;;;;4974748;28;20030;-86
2022/10/18 10:33:01;;;;;;;6.35;3.53;;;;;;;;;;4979680;28;20027;-85
2022/10/18 10:35:35;;;;;;;4.65;3.10;;;19.40;99.90;;;;;;4975179;28;20027;-84
2022/10/18 10:38:02;;;;;;;5.57;3.30;;;19.30;99.90;;;;;;4977172;28;20030;-86
2022/10/18 10:40:29;;;;;;;6.07;3.30;;;19.90;99.90;;;;;;4973131;28;20027;-83
2022/10/18 10:43:02;;;;;;;6.55;4.93;;;19.20;99.90;;;;;;4976890;28;20391;-85
2022/10/18 10:45:38;;;;;;;3.80;2.78;;;19.30;99.90;;;;;;4972705;28;20027;-86
2022/10/18 10:48:14;;;;;;;6.30;3.30;;;19.20;99.90;;;;;;4975589;28;20107;-85
2022/10/18 10:50:53;;;;;;;5.95;2.75;;;19.30;99.90;;;;;;4975752;28;20042;-87
2022/10/18 10:53:37;;;;;;;4.65;1.92;;;19.30;99.90;;;;;;4977530;28;20174;-85
2022/10/18 10:56:04;;;;;;;3.97;2.38;;;19.60;99.90;;;;;;4973058;28;20027;-86
2022/10/18 10:58:36;;;;;;;3.92;1.90;;;19.70;99.90;;;;;;4972632;28;20027;-87
2022/10/18 11:01:21;;;;;;;4.38;1.70;;;19.80;99.90;;;;;;4986055;28;20030;-85
2022/10/18 11:03:50;;;;;;;2.92;1.70;;;19.90;99.90;;;;;;4971774;28;20046;-87
2022/10/18 11:06:42;;;;;;;3.65;1.67;;;19.80;99.90;;;;;;4970337;28;20126;-87
2022/10/18 11:09:31;;;;;;;2.28;1.40;;;19.30;99.90;;;;;;4968171;28;20039;-87
2022/10/18 11:12:22;;;;;;;2.97;1.58;;;19.80;99.90;;;;;;4978850;28;20031;-84
2022/10/18 11:15:08;;;;;;;5.43;1.98;;;19.80;99.90;;;;;;4978266;28;20035;-86
2022/10/18 11:18:07;;;;;;;4.75;1.98;;;19.80;99.90;;;;;;4977204;28;20480;-85
2022/10/18 11:20:46;;;;;;;2.60;1.60;;;19.90;99.90;;;;;;4976538;28;20093;-90
2022/10/18 11:23:14;;;;;;;5.50;1.77;;;20.20;99.90;;;;;;4998849;28;20106;-87
2022/10/18 11:26:03;;;;;;;4.28;2.40;;;21.10;99.90;;;;;;4976977;28;20051;-86
2022/10/18 11:28:56;;;;;;;4.47;2.20;;;20.00;99.90;;;;;;4993191;28;20027;-85
2022/10/18 11:31:34;;;;;;;3.90;1.83;;;;;;;;;;4977214;28;20289;-86
2022/10/18 11:34:27;;;;;;;3.47;1.70;;;19.90;99.90;;;;;;4978457;28;20026;-85
2022/10/18 11:37:35;;;;;;;6.10;3.10;;;19.80;99.90;;;;;;4973704;28;20034;-86
2022/10/18 11:40:30;;;;;;;3.55;1.50;;;19.80;99.90;;;;;;4981154;28;20492;-87
2022/10/18 11:43:41;;;;;;;3.70;1.70;;;19.70;99.90;;;;;;4994786;28;20027;-84
2022/10/18 11:57:07;;;;;;;4.85;2.17;;;20.00;99.90;;;;;;5383092;23;20049;-88
2022/10/18 11:59:37;;;;;;;5.43;2.65;;;20.00;99.90;;;;;;4980625;28;20474;-89
2022/10/18 12:02:35;;;;;;;5.78;2.28;;;20.10;99.90;;;;;;4983477;28;20025;-88
2022/10/18 12:05:08;;;;;;;6.28;2.67;;;20.20;99.90;;;;;;4944527;28;20031;-87
2022/10/18 12:07:43;;;;;;;5.93;2.10;;;20.10;99.90;;;;;;4968807;28;20085;-88
2022/10/18 12:10:16;;;;;;;4.75;2.08;;;20.10;99.90;;;;;;4977117;28;20018;-87
2022/10/18 12:12:50;;;;;;;6.93;3.72;;;20.20;99.90;;;;;;4986786;28;20019;-88
2022/10/18 12:15:25;;;;;;;4.40;1.80;;;20.20;99.90;;;;;;4988016;28;20038;-87
2022/10/18 12:17:55;;;;;;;5.60;2.00;;;20.20;99.90;;;;;;4975752;28;20026;-87
2022/10/18 12:20:21;;;;;;;4.78;2.72;;;;;;;;;;4979905;28;20027;-87
2022/10/18 12:23:00;;;;;;;6.00;2.40;;;20.20;99.90;;;;;;4978692;28;20069;-86
2022/10/18 12:25:29;;;;;;;5.65;2.50;;;20.20;99.90;;;;;;4977399;28;20027;-86
2022/10/18 12:28:22;;;;;;;8.93;2.47;;;20.10;99.90;;;;;;4975816;28;20093;-86
2022/10/18 12:31:13;;;;;;;7.32;2.58;;;20.20;99.90;;;;;;4950386;28;20485;-86
2022/10/18 12:33:44;;;;;;;6.97;3.97;;;20.10;99.90;;;;;;4972020;28;20035;-87
2022/10/18 12:36:18;;;;;;;6.28;3.05;;;20.10;99.90;;;;;;4980983;28;20033;-85
2022/10/18 12:38:53;;;;;;;5.50;2.55;;;20.10;99.90;;;;;;4977046;28;20019;-87
2022/10/18 12:41:24;;;;;;;4.43;2.60;;;20.20;99.90;;;;;;4974911;28;20022;-87
2022/10/18 12:44:11;;;;;;;7.85;2.25;;;20.20;99.90;;;;;;4975463;28;20074;-87
2022/10/18 12:46:59;;;;;;;7.90;3.03;;;20.20;99.90;;;;;;4975580;28;20170;-87
2022/10/18 12:49:36;;;;;;;8.82;2.97;;;20.20;99.90;;;;;;4983774;28;20038;-86
2022/10/18 12:52:20;;;;;;;4.68;2.00;;;20.20;99.90;;;;;;4977697;28;20026;-88
2022/10/18 12:55:17;;;;;;;6.10;2.30;;;20.20;99.90;;;;;;4974128;28;20059;-88
2022/10/18 12:57:51;;;;;;;3.17;1.60;;;20.10;99.90;;;;;;4963133;28;20098;-85
2022/10/18 13:00:29;;;;;;;4.68;1.40;;;20.10;99.90;;;;;;4972611;28;20046;-85
2022/10/18 13:03:16;;;;;;;5.68;2.00;;;20.10;99.90;;;;;;4978802;28;20038;-86
2022/10/18 13:05:51;;;;;;;5.15;1.70;;;19.90;99.90;;;;;;4979061;28;20027;-86
2022/10/18 13:08:26;;;;;;;3.17;1.60;;;20.00;99.90;;;;;;4981031;28;20029;-85
2022/10/18 13:11:06;;;;;;;7.47;2.10;;;20.00;99.90;;;;;;4975567;28;20045;-86
2022/10/18 13:14:08;;;;;;;4.97;1.73;;;20.00;99.90;;;;;;4974050;28;20066;-86
2022/10/18 13:16:53;;;;;;;6.32;2.38;;;20.00;99.90;;;;;;4963637;28;20624;-85
2022/10/18 13:19:39;;;;;;;8.02;2.28;;;20.00;99.90;;;;;;4972990;28;20051;-87
2022/10/18 13:22:27;;;;;;;2.92;1.40;;;20.00;99.90;;;;;;4982791;28;20022;-88
2022/10/18 13:25:27;;;;;;;5.78;1.20;;;20.00;99.90;;;;;;4969540;28;20253;-88
2022/10/18 13:28:27;;;;;;;3.30;1.58;;;19.90;99.90;;;;;;4963139;28;20038;-87
2022/10/18 13:30:56;;;;;;;3.75;1.40;;;20.10;99.90;;;;;;4972004;28;20041;-87
2022/10/18 13:33:38;;;;;;;3.80;1.50;;;20.00;99.90;;;;;;4963903;28;20053;-87
2022/10/18 13:36:18;;;;;;;3.30;1.30;;;20.00;99.90;;;;;;4970398;28;20031;-88
2022/10/18 13:39:05;;;;;;;4.45;1.60;;;20.00;99.90;;;;;;4974372;28;20034;-86